Terminal Aerodrome Forecast
Issued by NWS Twin Cities, MN

Home | Current Version | Previous Version | Graphics & Text | Print | Product List | Glossary On
Versions: 1 2 3 4 5 6 7 8 9 10 11 12 13 14 15 16 17 18 19 20 21 22 23 24 25 26 27
000
FTUS43 KMPX 020344 AAB
TAFSTC
TAF AMD
KSTC 020344Z 0204/0224 13003KT P6SM SCT050 BKN080
     FM020600 16003KT P6SM SCT120 BKN200
      TEMPO 0207/0209 5SM -SHRA BKN050 OVC100
     FM021400 16010KT P6SM BKN100
     FM021800 16010KT P6SM SCT050=

USA.gov is the U.S. government's official web portal to all federal, state and local government web resources and services.